sensor_id;sensor_type;location;lat;lon;timestamp;P1;durP1;ratioP1;P2;durP2;ratioP2
62582;SDS011;48641;51.676;5.808;2022-07-05T00:00:45;3.22;;;1.50;;
62582;SDS011;48641;51.676;5.808;2022-07-05T00:03:11;2.83;;;1.38;;
62582;SDS011;48641;51.676;5.808;2022-07-05T00:05:37;3.47;;;1.48;;
62582;SDS011;48641;51.676;5.808;2022-07-05T00:08:03;2.88;;;1.30;;
62582;SDS011;48641;51.676;5.808;2022-07-05T00:10:29;2.90;;;1.30;;
62582;SDS011;48641;51.676;5.808;2022-07-05T00:12:56;3.75;;;1.40;;
62582;SDS011;48641;51.676;5.808;2022-07-05T00:15:21;3.47;;;1.40;;
62582;SDS011;48641;51.676;5.808;2022-07-05T00:17:48;3.20;;;1.50;;
62582;SDS011;48641;51.676;5.808;2022-07-05T00:20:13;2.67;;;1.27;;
62582;SDS011;48641;51.676;5.808;2022-07-05T00:22:39;3.15;;;1.30;;
62582;SDS011;48641;51.676;5.808;2022-07-05T00:25:05;2.47;;;1.30;;
62582;SDS011;48641;51.676;5.808;2022-07-05T00:27:31;6.22;;;1.45;;
62582;SDS011;48641;51.676;5.808;2022-07-05T00:29:56;2.95;;;1.40;;
62582;SDS011;48641;51.676;5.808;2022-07-05T00:32:22;2.65;;;1.30;;
62582;SDS011;48641;51.676;5.808;2022-07-05T00:34:48;2.25;;;1.20;;
62582;SDS011;48641;51.676;5.808;2022-07-05T00:37:13;2.53;;;1.30;;
62582;SDS011;48641;51.676;5.808;2022-07-05T00:39:39;3.10;;;1.38;;
62582;SDS011;48641;51.676;5.808;2022-07-05T00:42:04;3.65;;;1.52;;
62582;SDS011;48641;51.676;5.808;2022-07-05T00:44:32;3.67;;;1.50;;
62582;SDS011;48641;51.676;5.808;2022-07-05T00:47:00;2.55;;;1.30;;
62582;SDS011;48641;51.676;5.808;2022-07-05T00:49:27;2.72;;;1.40;;
62582;SDS011;48641;51.676;5.808;2022-07-05T00:51:54;3.50;;;1.58;;
62582;SDS011;48641;51.676;5.808;2022-07-05T00:54:20;4.78;;;1.52;;
62582;SDS011;48641;51.676;5.808;2022-07-05T00:56:45;3.50;;;1.45;;
62582;SDS011;48641;51.676;5.808;2022-07-05T00:59:11;2.90;;;1.40;;
62582;SDS011;48641;51.676;5.808;2022-07-05T01:01:37;2.88;;;1.40;;
62582;SDS011;48641;51.676;5.808;2022-07-05T01:04:02;3.95;;;1.55;;
62582;SDS011;48641;51.676;5.808;2022-07-05T01:06:28;2.30;;;1.20;;
62582;SDS011;48641;51.676;5.808;2022-07-05T01:08:54;3.05;;;1.42;;
62582;SDS011;48641;51.676;5.808;2022-07-05T01:11:19;4.07;;;1.60;;
62582;SDS011;48641;51.676;5.808;2022-07-05T01:13:45;3.78;;;1.60;;
62582;SDS011;48641;51.676;5.808;2022-07-05T01:16:12;3.47;;;1.30;;
62582;SDS011;48641;51.676;5.808;2022-07-05T01:18:38;3.20;;;1.45;;
62582;SDS011;48641;51.676;5.808;2022-07-05T01:21:03;3.22;;;1.55;;
62582;SDS011;48641;51.676;5.808;2022-07-05T01:23:30;3.13;;;1.65;;
62582;SDS011;48641;51.676;5.808;2022-07-05T01:25:58;3.22;;;1.60;;
62582;SDS011;48641;51.676;5.808;2022-07-05T01:28:25;3.57;;;1.50;;
62582;SDS011;48641;51.676;5.808;2022-07-05T01:30:51;2.90;;;1.55;;
62582;SDS011;48641;51.676;5.808;2022-07-05T01:33:17;4.25;;;1.50;;
62582;SDS011;48641;51.676;5.808;2022-07-05T01:35:42;3.40;;;1.70;;
62582;SDS011;48641;51.676;5.808;2022-07-05T01:38:10;3.42;;;1.52;;
62582;SDS011;48641;51.676;5.808;2022-07-05T01:40:36;4.32;;;1.73;;
62582;SDS011;48641;51.676;5.808;2022-07-05T01:43:02;4.07;;;1.73;;
62582;SDS011;48641;51.676;5.808;2022-07-05T01:45:29;3.65;;;1.50;;
62582;SDS011;48641;51.676;5.808;2022-07-05T01:51:07;3.33;;;1.65;;
62582;SDS011;48641;51.676;5.808;2022-07-05T01:53:29;4.22;;;1.60;;
62582;SDS011;48641;51.676;5.808;2022-07-05T01:55:56;3.80;;;1.60;;
62582;SDS011;48641;51.676;5.808;2022-07-05T01:58:22;3.60;;;1.60;;
62582;SDS011;48641;51.676;5.808;2022-07-05T02:00:54;4.38;;;1.80;;
62582;SDS011;48641;51.676;5.808;2022-07-05T02:03:21;4.38;;;1.67;;
62582;SDS011;48641;51.676;5.808;2022-07-05T02:05:47;4.50;;;1.80;;
62582;SDS011;48641;51.676;5.808;2022-07-05T02:08:14;4.13;;;1.70;;
62582;SDS011;48641;51.676;5.808;2022-07-05T02:10:40;3.38;;;1.58;;
62582;SDS011;48641;51.676;5.808;2022-07-05T02:13:07;3.63;;;1.77;;
62582;SDS011;48641;51.676;5.808;2022-07-05T02:15:34;4.90;;;1.70;;
62582;SDS011;48641;51.676;5.808;2022-07-05T02:18:02;4.72;;;1.80;;
62582;SDS011;48641;51.676;5.808;2022-07-05T02:20:29;3.88;;;1.80;;
62582;SDS011;48641;51.676;5.808;2022-07-05T02:22:56;4.78;;;1.73;;
62582;SDS011;48641;51.676;5.808;2022-07-05T02:25:22;4.10;;;1.88;;
62582;SDS011;48641;51.676;5.808;2022-07-05T02:27:48;4.22;;;1.85;;
62582;SDS011;48641;51.676;5.808;2022-07-05T02:30:14;3.50;;;1.52;;
62582;SDS011;48641;51.676;5.808;2022-07-05T02:32:41;4.55;;;1.80;;
62582;SDS011;48641;51.676;5.808;2022-07-05T02:35:07;3.88;;;1.65;;
62582;SDS011;48641;51.676;5.808;2022-07-05T02:37:34;4.32;;;1.77;;
62582;SDS011;48641;51.676;5.808;2022-07-05T02:39:59;3.92;;;1.80;;
62582;SDS011;48641;51.676;5.808;2022-07-05T02:42:25;4.68;;;1.92;;
62582;SDS011;48641;51.676;5.808;2022-07-05T02:44:51;5.00;;;1.75;;
62582;SDS011;48641;51.676;5.808;2022-07-05T02:47:16;5.55;;;1.90;;
62582;SDS011;48641;51.676;5.808;2022-07-05T02:49:42;4.57;;;1.75;;
62582;SDS011;48641;51.676;5.808;2022-07-05T02:52:08;4.85;;;1.80;;
62582;SDS011;48641;51.676;5.808;2022-07-05T02:54:33;4.53;;;2.00;;
62582;SDS011;48641;51.676;5.808;2022-07-05T02:56:59;3.97;;;1.70;;
62582;SDS011;48641;51.676;5.808;2022-07-05T02:59:25;3.63;;;1.60;;
62582;SDS011;48641;51.676;5.808;2022-07-05T03:01:51;4.75;;;1.70;;
62582;SDS011;48641;51.676;5.808;2022-07-05T03:04:16;4.13;;;2.10;;
62582;SDS011;48641;51.676;5.808;2022-07-05T03:06:42;4.65;;;1.90;;
62582;SDS011;48641;51.676;5.808;2022-07-05T03:09:08;3.95;;;1.90;;
62582;SDS011;48641;51.676;5.808;2022-07-05T03:11:33;4.72;;;2.10;;
62582;SDS011;48641;51.676;5.808;2022-07-05T03:13:59;4.43;;;2.25;;
62582;SDS011;48641;51.676;5.808;2022-07-05T03:16:24;4.65;;;1.92;;
62582;SDS011;48641;51.676;5.808;2022-07-05T03:18:50;3.92;;;1.67;;
62582;SDS011;48641;51.676;5.808;2022-07-05T03:21:16;4.45;;;1.83;;
62582;SDS011;48641;51.676;5.808;2022-07-05T03:23:42;3.67;;;1.80;;
62582;SDS011;48641;51.676;5.808;2022-07-05T03:26:07;3.33;;;1.63;;
62582;SDS011;48641;51.676;5.808;2022-07-05T03:28:33;4.22;;;2.05;;
62582;SDS011;48641;51.676;5.808;2022-07-05T03:30:59;3.55;;;1.92;;
62582;SDS011;48641;51.676;5.808;2022-07-05T03:33:24;4.30;;;1.73;;
62582;SDS011;48641;51.676;5.808;2022-07-05T03:35:50;4.30;;;1.73;;
62582;SDS011;48641;51.676;5.808;2022-07-05T03:38:16;4.55;;;2.10;;
62582;SDS011;48641;51.676;5.808;2022-07-05T03:40:41;4.72;;;1.95;;
62582;SDS011;48641;51.676;5.808;2022-07-05T03:43:07;4.63;;;1.95;;
62582;SDS011;48641;51.676;5.808;2022-07-05T03:45:32;3.97;;;1.73;;
62582;SDS011;48641;51.676;5.808;2022-07-05T03:47:59;3.97;;;1.83;;
62582;SDS011;48641;51.676;5.808;2022-07-05T03:50:25;3.30;;;1.90;;
62582;SDS011;48641;51.676;5.808;2022-07-05T03:52:51;4.88;;;2.00;;
62582;SDS011;48641;51.676;5.808;2022-07-05T03:55:16;4.18;;;2.05;;
62582;SDS011;48641;51.676;5.808;2022-07-05T03:57:42;5.32;;;2.00;;
62582;SDS011;48641;51.676;5.808;2022-07-05T04:00:08;4.43;;;2.20;;
62582;SDS011;48641;51.676;5.808;2022-07-05T04:02:34;4.60;;;2.10;;
62582;SDS011;48641;51.676;5.808;2022-07-05T04:05:00;3.92;;;1.95;;
62582;SDS011;48641;51.676;5.808;2022-07-05T04:07:26;4.80;;;2.03;;
62582;SDS011;48641;51.676;5.808;2022-07-05T04:09:51;4.00;;;2.10;;
62582;SDS011;48641;51.676;5.808;2022-07-05T04:12:17;4.40;;;2.15;;
62582;SDS011;48641;51.676;5.808;2022-07-05T04:14:42;5.07;;;1.90;;
62582;SDS011;48641;51.676;5.808;2022-07-05T04:17:08;4.70;;;2.05;;
62582;SDS011;48641;51.676;5.808;2022-07-05T04:19:33;5.13;;;2.05;;
62582;SDS011;48641;51.676;5.808;2022-07-05T04:21:59;4.07;;;2.13;;
62582;SDS011;48641;51.676;5.808;2022-07-05T04:24:25;4.60;;;2.08;;
62582;SDS011;48641;51.676;5.808;2022-07-05T04:26:50;5.07;;;2.28;;
62582;SDS011;48641;51.676;5.808;2022-07-05T04:29:16;4.65;;;2.05;;
62582;SDS011;48641;51.676;5.808;2022-07-05T04:31:41;4.50;;;1.90;;
62582;SDS011;48641;51.676;5.808;2022-07-05T04:34:07;4.97;;;1.98;;
62582;SDS011;48641;51.676;5.808;2022-07-05T04:36:33;4.45;;;2.10;;
62582;SDS011;48641;51.676;5.808;2022-07-05T04:38:59;4.75;;;2.00;;
62582;SDS011;48641;51.676;5.808;2022-07-05T04:41:24;4.32;;;2.13;;
62582;SDS011;48641;51.676;5.808;2022-07-05T04:43:50;5.53;;;2.50;;
62582;SDS011;48641;51.676;5.808;2022-07-05T04:46:16;6.32;;;2.42;;
62582;SDS011;48641;51.676;5.808;2022-07-05T04:48:41;6.05;;;3.03;;
62582;SDS011;48641;51.676;5.808;2022-07-05T04:51:07;6.10;;;2.35;;
62582;SDS011;48641;51.676;5.808;2022-07-05T04:53:32;6.50;;;2.38;;
62582;SDS011;48641;51.676;5.808;2022-07-05T04:55:58;4.65;;;2.50;;
62582;SDS011;48641;51.676;5.808;2022-07-05T04:58:24;5.45;;;2.63;;
62582;SDS011;48641;51.676;5.808;2022-07-05T05:00:49;5.20;;;2.65;;
62582;SDS011;48641;51.676;5.808;2022-07-05T05:03:15;6.47;;;2.60;;
62582;SDS011;48641;51.676;5.808;2022-07-05T05:05:40;5.85;;;2.70;;
62582;SDS011;48641;51.676;5.808;2022-07-05T05:08:06;6.93;;;2.80;;
62582;SDS011;48641;51.676;5.808;2022-07-05T05:10:31;4.80;;;2.50;;
62582;SDS011;48641;51.676;5.808;2022-07-05T05:12:57;5.15;;;2.50;;
62582;SDS011;48641;51.676;5.808;2022-07-05T05:15:23;6.00;;;2.80;;
62582;SDS011;48641;51.676;5.808;2022-07-05T05:17:48;5.78;;;2.60;;
62582;SDS011;48641;51.676;5.808;2022-07-05T05:20:15;5.97;;;2.80;;
62582;SDS011;48641;51.676;5.808;2022-07-05T05:22:42;5.57;;;2.75;;
62582;SDS011;48641;51.676;5.808;2022-07-05T05:25:08;6.18;;;3.20;;
62582;SDS011;48641;51.676;5.808;2022-07-05T05:27:35;5.88;;;3.13;;
62582;SDS011;48641;51.676;5.808;2022-07-05T05:30:05;6.22;;;2.92;;
62582;SDS011;48641;51.676;5.808;2022-07-05T05:32:31;5.85;;;2.80;;
62582;SDS011;48641;51.676;5.808;2022-07-05T05:34:56;7.55;;;3.13;;
62582;SDS011;48641;51.676;5.808;2022-07-05T05:37:22;7.45;;;3.15;;
62582;SDS011;48641;51.676;5.808;2022-07-05T05:39:47;6.28;;;3.10;;
62582;SDS011;48641;51.676;5.808;2022-07-05T05:42:13;6.10;;;3.15;;
62582;SDS011;48641;51.676;5.808;2022-07-05T05:44:38;7.15;;;3.10;;
62582;SDS011;48641;51.676;5.808;2022-07-05T05:47:04;6.78;;;3.20;;
62582;SDS011;48641;51.676;5.808;2022-07-05T05:49:29;7.65;;;3.30;;
62582;SDS011;48641;51.676;5.808;2022-07-05T05:51:55;7.03;;;3.15;;
62582;SDS011;48641;51.676;5.808;2022-07-05T05:54:20;6.85;;;3.30;;
62582;SDS011;48641;51.676;5.808;2022-07-05T05:56:46;5.82;;;2.97;;
62582;SDS011;48641;51.676;5.808;2022-07-05T05:59:12;6.13;;;3.05;;
62582;SDS011;48641;51.676;5.808;2022-07-05T06:01:37;8.07;;;3.75;;
62582;SDS011;48641;51.676;5.808;2022-07-05T06:04:03;9.98;;;4.20;;
62582;SDS011;48641;51.676;5.808;2022-07-05T06:06:28;7.22;;;3.50;;
62582;SDS011;48641;51.676;5.808;2022-07-05T06:08:54;8.77;;;3.90;;
62582;SDS011;48641;51.676;5.808;2022-07-05T06:11:19;12.30;;;3.90;;
62582;SDS011;48641;51.676;5.808;2022-07-05T06:13:46;9.77;;;4.38;;
62582;SDS011;48641;51.676;5.808;2022-07-05T06:16:11;7.10;;;3.97;;
62582;SDS011;48641;51.676;5.808;2022-07-05T06:18:37;9.23;;;4.35;;
62582;SDS011;48641;51.676;5.808;2022-07-05T06:21:02;9.10;;;4.10;;
62582;SDS011;48641;51.676;5.808;2022-07-05T06:23:28;9.73;;;4.00;;
62582;SDS011;48641;51.676;5.808;2022-07-05T06:25:54;10.30;;;3.78;;
62582;SDS011;48641;51.676;5.808;2022-07-05T06:28:19;8.32;;;3.75;;
62582;SDS011;48641;51.676;5.808;2022-07-05T06:30:45;7.68;;;3.22;;
62582;SDS011;48641;51.676;5.808;2022-07-05T06:33:11;11.20;;;4.13;;
62582;SDS011;48641;51.676;5.808;2022-07-05T06:35:36;7.65;;;3.60;;
62582;SDS011;48641;51.676;5.808;2022-07-05T06:38:02;7.25;;;3.38;;
62582;SDS011;48641;51.676;5.808;2022-07-05T06:40:30;7.45;;;3.70;;
62582;SDS011;48641;51.676;5.808;2022-07-05T06:42:58;9.18;;;3.45;;
62582;SDS011;48641;51.676;5.808;2022-07-05T06:45:25;7.60;;;3.17;;
62582;SDS011;48641;51.676;5.808;2022-07-05T06:47:58;6.55;;;2.97;;
62582;SDS011;48641;51.676;5.808;2022-07-05T06:50:31;8.35;;;3.35;;
62582;SDS011;48641;51.676;5.808;2022-07-05T06:53:01;6.95;;;3.33;;
62582;SDS011;48641;51.676;5.808;2022-07-05T06:55:27;7.05;;;2.92;;
62582;SDS011;48641;51.676;5.808;2022-07-05T06:57:57;7.43;;;3.20;;
62582;SDS011;48641;51.676;5.808;2022-07-05T07:00:27;6.78;;;3.05;;
62582;SDS011;48641;51.676;5.808;2022-07-05T07:02:53;8.15;;;2.92;;
62582;SDS011;48641;51.676;5.808;2022-07-05T07:05:18;5.57;;;2.83;;
62582;SDS011;48641;51.676;5.808;2022-07-05T07:07:44;7.32;;;2.92;;
62582;SDS011;48641;51.676;5.808;2022-07-05T07:10:28;5.10;;;2.60;;
62582;SDS011;48641;51.676;5.808;2022-07-05T07:12:54;7.07;;;2.90;;
62582;SDS011;48641;51.676;5.808;2022-07-05T07:15:19;6.45;;;2.60;;
62582;SDS011;48641;51.676;5.808;2022-07-05T07:17:46;8.63;;;2.70;;
62582;SDS011;48641;51.676;5.808;2022-07-05T07:20:11;5.90;;;2.88;;
62582;SDS011;48641;51.676;5.808;2022-07-05T07:22:37;6.22;;;2.85;;
62582;SDS011;48641;51.676;5.808;2022-07-05T07:25:03;6.18;;;2.70;;
62582;SDS011;48641;51.676;5.808;2022-07-05T07:27:30;6.30;;;2.45;;
62582;SDS011;48641;51.676;5.808;2022-07-05T07:29:56;5.40;;;2.38;;
62582;SDS011;48641;51.676;5.808;2022-07-05T07:32:22;5.88;;;2.42;;
62582;SDS011;48641;51.676;5.808;2022-07-05T07:34:47;7.05;;;2.60;;
62582;SDS011;48641;51.676;5.808;2022-07-05T07:37:13;5.13;;;2.40;;
62582;SDS011;48641;51.676;5.808;2022-07-05T07:39:39;4.72;;;2.10;;
62582;SDS011;48641;51.676;5.808;2022-07-05T07:42:06;5.68;;;2.33;;
62582;SDS011;48641;51.676;5.808;2022-07-05T07:44:32;5.18;;;2.08;;
62582;SDS011;48641;51.676;5.808;2022-07-05T07:46:58;5.65;;;2.20;;
62582;SDS011;48641;51.676;5.808;2022-07-05T07:49:23;6.00;;;2.55;;
62582;SDS011;48641;51.676;5.808;2022-07-05T07:51:50;7.00;;;2.85;;
62582;SDS011;48641;51.676;5.808;2022-07-05T07:54:16;5.43;;;2.35;;
62582;SDS011;48641;51.676;5.808;2022-07-05T07:56:42;6.57;;;2.35;;
62582;SDS011;48641;51.676;5.808;2022-07-05T07:59:08;7.53;;;2.90;;
62582;SDS011;48641;51.676;5.808;2022-07-05T08:01:34;6.72;;;2.47;;
62582;SDS011;48641;51.676;5.808;2022-07-05T08:03:59;6.97;;;2.60;;
62582;SDS011;48641;51.676;5.808;2022-07-05T08:06:25;5.80;;;2.10;;
62582;SDS011;48641;51.676;5.808;2022-07-05T08:08:51;6.72;;;2.38;;
62582;SDS011;48641;51.676;5.808;2022-07-05T08:11:16;6.30;;;2.03;;
62582;SDS011;48641;51.676;5.808;2022-07-05T08:13:42;4.95;;;2.05;;
62582;SDS011;48641;51.676;5.808;2022-07-05T08:16:08;5.60;;;1.95;;
62582;SDS011;48641;51.676;5.808;2022-07-05T08:18:35;5.53;;;2.10;;
62582;SDS011;48641;51.676;5.808;2022-07-05T08:21:19;5.68;;;2.10;;
62582;SDS011;48641;51.676;5.808;2022-07-05T08:24:03;4.85;;;1.90;;
62582;SDS011;48641;51.676;5.808;2022-07-05T08:26:30;5.20;;;1.70;;
62582;SDS011;48641;51.676;5.808;2022-07-05T08:28:56;4.40;;;2.00;;
62582;SDS011;48641;51.676;5.808;2022-07-05T08:31:23;4.40;;;1.70;;
62582;SDS011;48641;51.676;5.808;2022-07-05T08:33:50;4.93;;;1.90;;
62582;SDS011;48641;51.676;5.808;2022-07-05T08:36:16;4.55;;;1.63;;
62582;SDS011;48641;51.676;5.808;2022-07-05T08:38:41;6.07;;;1.75;;
62582;SDS011;48641;51.676;5.808;2022-07-05T08:41:08;4.93;;;2.00;;
62582;SDS011;48641;51.676;5.808;2022-07-05T08:43:35;5.85;;;1.80;;
62582;SDS011;48641;51.676;5.808;2022-07-05T08:46:16;4.05;;;1.55;;
62582;SDS011;48641;51.676;5.808;2022-07-05T08:48:43;4.50;;;1.60;;
62582;SDS011;48641;51.676;5.808;2022-07-05T08:51:12;4.28;;;1.70;;
62582;SDS011;48641;51.676;5.808;2022-07-05T08:53:40;4.00;;;1.63;;
62582;SDS011;48641;51.676;5.808;2022-07-05T08:56:09;5.13;;;1.75;;
62582;SDS011;48641;51.676;5.808;2022-07-05T08:58:36;5.82;;;2.00;;
62582;SDS011;48641;51.676;5.808;2022-07-05T09:01:03;3.97;;;1.77;;
62582;SDS011;48641;51.676;5.808;2022-07-05T09:03:32;4.28;;;1.75;;
62582;SDS011;48641;51.676;5.808;2022-07-05T09:06:08;4.45;;;1.70;;
62582;SDS011;48641;51.676;5.808;2022-07-05T09:08:36;3.67;;;1.55;;
62582;SDS011;48641;51.676;5.808;2022-07-05T09:11:11;2.25;;;1.40;;
62582;SDS011;48641;51.676;5.808;2022-07-05T09:13:40;3.47;;;1.42;;
62582;SDS011;48641;51.676;5.808;2022-07-05T09:16:07;3.53;;;1.55;;
62582;SDS011;48641;51.676;5.808;2022-07-05T09:18:43;4.35;;;1.80;;
62582;SDS011;48641;51.676;5.808;2022-07-05T09:23:38;3.70;;;1.63;;
62582;SDS011;48641;51.676;5.808;2022-07-05T09:26:04;4.15;;;1.70;;
62582;SDS011;48641;51.676;5.808;2022-07-05T09:28:30;3.88;;;1.50;;
62582;SDS011;48641;51.676;5.808;2022-07-05T09:30:55;3.90;;;1.55;;
62582;SDS011;48641;51.676;5.808;2022-07-05T09:33:21;4.32;;;1.75;;
62582;SDS011;48641;51.676;5.808;2022-07-05T09:35:53;3.10;;;1.60;;
62582;SDS011;48641;51.676;5.808;2022-07-05T09:38:22;3.65;;;1.50;;
62582;SDS011;48641;51.676;5.808;2022-07-05T09:40:56;3.63;;;1.58;;
62582;SDS011;48641;51.676;5.808;2022-07-05T09:43:24;8.38;;;2.00;;
62582;SDS011;48641;51.676;5.808;2022-07-05T09:45:52;4.90;;;1.80;;
62582;SDS011;48641;51.676;5.808;2022-07-05T09:48:22;4.88;;;1.63;;
62582;SDS011;48641;51.676;5.808;2022-07-05T09:50:49;3.45;;;1.60;;
62582;SDS011;48641;51.676;5.808;2022-07-05T09:53:19;4.82;;;1.77;;
62582;SDS011;48641;51.676;5.808;2022-07-05T09:56:00;4.78;;;1.70;;
62582;SDS011;48641;51.676;5.808;2022-07-05T09:58:26;7.18;;;1.73;;
62582;SDS011;48641;51.676;5.808;2022-07-05T10:00:52;5.40;;;1.90;;
62582;SDS011;48641;51.676;5.808;2022-07-05T10:03:18;5.80;;;1.90;;
62582;SDS011;48641;51.676;5.808;2022-07-05T10:05:43;4.72;;;1.52;;
62582;SDS011;48641;51.676;5.808;2022-07-05T10:08:09;5.35;;;1.80;;
62582;SDS011;48641;51.676;5.808;2022-07-05T10:10:37;4.75;;;1.48;;
62582;SDS011;48641;51.676;5.808;2022-07-05T10:13:04;4.32;;;1.70;;
62582;SDS011;48641;51.676;5.808;2022-07-05T10:15:34;6.57;;;1.70;;
62582;SDS011;48641;51.676;5.808;2022-07-05T10:20:33;3.70;;;1.73;;
62582;SDS011;48641;51.676;5.808;2022-07-05T10:23:12;4.72;;;1.80;;
62582;SDS011;48641;51.676;5.808;2022-07-05T10:25:40;4.32;;;1.52;;
62582;SDS011;48641;51.676;5.808;2022-07-05T10:28:08;4.07;;;1.57;;
62582;SDS011;48641;51.676;5.808;2022-07-05T10:30:35;4.10;;;1.45;;
62582;SDS011;48641;51.676;5.808;2022-07-05T10:33:01;4.13;;;1.60;;
62582;SDS011;48641;51.676;5.808;2022-07-05T10:35:29;4.95;;;1.45;;
62582;SDS011;48641;51.676;5.808;2022-07-05T10:37:55;4.13;;;1.50;;
62582;SDS011;48641;51.676;5.808;2022-07-05T10:40:23;3.25;;;1.42;;
62582;SDS011;48641;51.676;5.808;2022-07-05T10:42:51;3.35;;;1.50;;
62582;SDS011;48641;51.676;5.808;2022-07-05T10:48:17;3.85;;;1.67;;
62582;SDS011;48641;51.676;5.808;2022-07-05T10:50:45;6.15;;;2.13;;
62582;SDS011;48641;51.676;5.808;2022-07-05T10:53:29;5.00;;;1.80;;
62582;SDS011;48641;51.676;5.808;2022-07-05T10:56:16;5.55;;;1.67;;
62582;SDS011;48641;51.676;5.808;2022-07-05T10:58:42;3.97;;;1.60;;
62582;SDS011;48641;51.676;5.808;2022-07-05T11:11:29;4.05;;;1.75;;
62582;SDS011;48641;51.676;5.808;2022-07-05T11:13:59;5.90;;;1.65;;
62582;SDS011;48641;51.676;5.808;2022-07-05T11:16:29;3.60;;;1.50;;
62582;SDS011;48641;51.676;5.808;2022-07-05T11:19:10;3.95;;;1.40;;
62582;SDS011;48641;51.676;5.808;2022-07-05T11:21:37;2.65;;;1.45;;
62582;SDS011;48641;51.676;5.808;2022-07-05T11:24:21;5.07;;;1.50;;
62582;SDS011;48641;51.676;5.808;2022-07-05T11:26:48;4.93;;;1.50;;
62582;SDS011;48641;51.676;5.808;2022-07-05T11:32:06;2.75;;;1.50;;
62582;SDS011;48641;51.676;5.808;2022-07-05T11:34:32;3.65;;;1.40;;
62582;SDS011;48641;51.676;5.808;2022-07-05T11:40:35;4.68;;;1.55;;
62582;SDS011;48641;51.676;5.808;2022-07-05T11:42:39;3.67;;;1.60;;
62582;SDS011;48641;51.676;5.808;2022-07-05T11:45:11;4.68;;;1.50;;
62582;SDS011;48641;51.676;5.808;2022-07-05T11:47:37;3.28;;;1.33;;
62582;SDS011;48641;51.676;5.808;2022-07-05T11:50:04;3.22;;;1.45;;
62582;SDS011;48641;51.676;5.808;2022-07-05T11:52:31;3.08;;;1.40;;
62582;SDS011;48641;51.676;5.808;2022-07-05T11:54:58;3.50;;;1.50;;
62582;SDS011;48641;51.676;5.808;2022-07-05T11:57:25;2.58;;;1.45;;
62582;SDS011;48641;51.676;5.808;2022-07-05T11:59:52;2.63;;;1.40;;
62582;SDS011;48641;51.676;5.808;2022-07-05T12:02:18;2.97;;;1.30;;
62582;SDS011;48641;51.676;5.808;2022-07-05T12:04:48;4.78;;;1.42;;
62582;SDS011;48641;51.676;5.808;2022-07-05T12:10:16;4.10;;;1.40;;
62582;SDS011;48641;51.676;5.808;2022-07-05T12:13:04;4.13;;;1.85;;
62582;SDS011;48641;51.676;5.808;2022-07-05T12:15:30;3.92;;;1.40;;
62582;SDS011;48641;51.676;5.808;2022-07-05T12:17:56;3.15;;;1.27;;
62582;SDS011;48641;51.676;5.808;2022-07-05T12:20:28;3.13;;;1.42;;
62582;SDS011;48641;51.676;5.808;2022-07-05T12:22:54;2.75;;;1.40;;
62582;SDS011;48641;51.676;5.808;2022-07-05T12:25:20;4.95;;;1.67;;
62582;SDS011;48641;51.676;5.808;2022-07-05T12:27:49;4.15;;;1.77;;
62582;SDS011;48641;51.676;5.808;2022-07-05T12:32:59;5.55;;;1.70;;
62582;SDS011;48641;51.676;5.808;2022-07-05T12:35:30;4.90;;;1.52;;
62582;SDS011;48641;51.676;5.808;2022-07-05T12:38:09;3.25;;;1.20;;
62582;SDS011;48641;51.676;5.808;2022-07-05T12:40:39;7.10;;;1.65;;
62582;SDS011;48641;51.676;5.808;2022-07-05T12:43:13;5.68;;;2.08;;
62582;SDS011;48641;51.676;5.808;2022-07-05T12:45:41;4.40;;;1.60;;
62582;SDS011;48641;51.676;5.808;2022-07-05T12:48:08;5.05;;;1.35;;
62582;SDS011;48641;51.676;5.808;2022-07-05T12:50:48;5.88;;;1.50;;
62582;SDS011;48641;51.676;5.808;2022-07-05T12:53:15;3.72;;;1.38;;
62582;SDS011;48641;51.676;5.808;2022-07-05T12:56:10;4.10;;;1.50;;
62582;SDS011;48641;51.676;5.808;2022-07-05T12:58:55;5.65;;;1.52;;
62582;SDS011;48641;51.676;5.808;2022-07-05T13:01:22;6.45;;;1.88;;
62582;SDS011;48641;51.676;5.808;2022-07-05T13:06:40;4.80;;;1.50;;
62582;SDS011;48641;51.676;5.808;2022-07-05T13:09:06;3.47;;;1.30;;
62582;SDS011;48641;51.676;5.808;2022-07-05T13:11:32;4.00;;;1.55;;
62582;SDS011;48641;51.676;5.808;2022-07-05T13:13:58;3.15;;;1.40;;
62582;SDS011;48641;51.676;5.808;2022-07-05T13:16:23;4.00;;;1.40;;
62582;SDS011;48641;51.676;5.808;2022-07-05T13:18:49;4.80;;;1.58;;
62582;SDS011;48641;51.676;5.808;2022-07-05T13:21:14;4.05;;;1.60;;
62582;SDS011;48641;51.676;5.808;2022-07-05T13:23:40;3.17;;;1.42;;
62582;SDS011;48641;51.676;5.808;2022-07-05T13:26:05;5.63;;;1.60;;
62582;SDS011;48641;51.676;5.808;2022-07-05T13:28:31;3.45;;;1.38;;
62582;SDS011;48641;51.676;5.808;2022-07-05T13:30:57;2.90;;;1.40;;
62582;SDS011;48641;51.676;5.808;2022-07-05T13:33:23;3.92;;;1.75;;
62582;SDS011;48641;51.676;5.808;2022-07-05T13:35:48;4.53;;;1.50;;
62582;SDS011;48641;51.676;5.808;2022-07-05T13:38:14;3.63;;;1.60;;
62582;SDS011;48641;51.676;5.808;2022-07-05T13:40:39;4.43;;;1.70;;
62582;SDS011;48641;51.676;5.808;2022-07-05T13:43:05;3.42;;;1.33;;
62582;SDS011;48641;51.676;5.808;2022-07-05T13:45:31;5.45;;;1.60;;
62582;SDS011;48641;51.676;5.808;2022-07-05T13:47:56;3.75;;;1.40;;
62582;SDS011;48641;51.676;5.808;2022-07-05T13:50:22;3.92;;;1.30;;
62582;SDS011;48641;51.676;5.808;2022-07-05T13:53:00;2.72;;;1.33;;
62582;SDS011;48641;51.676;5.808;2022-07-05T13:57:52;7.13;;;1.55;;
62582;SDS011;48641;51.676;5.808;2022-07-05T14:00:18;4.00;;;1.30;;
62582;SDS011;48641;51.676;5.808;2022-07-05T14:02:43;3.67;;;1.30;;
62582;SDS011;48641;51.676;5.808;2022-07-05T14:05:09;3.72;;;1.23;;
62582;SDS011;48641;51.676;5.808;2022-07-05T14:07:35;4.63;;;1.45;;
62582;SDS011;48641;51.676;5.808;2022-07-05T14:10:01;3.15;;;1.30;;
62582;SDS011;48641;51.676;5.808;2022-07-05T14:12:28;3.00;;;1.27;;
62582;SDS011;48641;51.676;5.808;2022-07-05T14:14:53;3.85;;;1.20;;
62582;SDS011;48641;51.676;5.808;2022-07-05T14:17:19;4.25;;;1.42;;
62582;SDS011;48641;51.676;5.808;2022-07-05T14:19:44;3.80;;;1.25;;
62582;SDS011;48641;51.676;5.808;2022-07-05T14:22:10;5.20;;;1.50;;
62582;SDS011;48641;51.676;5.808;2022-07-05T14:24:35;5.28;;;1.50;;
62582;SDS011;48641;51.676;5.808;2022-07-05T14:27:01;4.20;;;1.42;;
62582;SDS011;48641;51.676;5.808;2022-07-05T14:29:27;4.22;;;1.35;;
62582;SDS011;48641;51.676;5.808;2022-07-05T14:31:52;3.80;;;1.13;;
62582;SDS011;48641;51.676;5.808;2022-07-05T14:34:18;4.18;;;1.40;;
62582;SDS011;48641;51.676;5.808;2022-07-05T14:36:43;4.25;;;1.20;;
62582;SDS011;48641;51.676;5.808;2022-07-05T14:39:09;4.50;;;1.20;;
62582;SDS011;48641;51.676;5.808;2022-07-05T14:41:34;4.40;;;1.20;;
62582;SDS011;48641;51.676;5.808;2022-07-05T14:44:00;3.45;;;1.20;;
62582;SDS011;48641;51.676;5.808;2022-07-05T14:46:25;4.05;;;1.20;;
62582;SDS011;48641;51.676;5.808;2022-07-05T14:48:51;4.25;;;1.30;;
62582;SDS011;48641;51.676;5.808;2022-07-05T14:51:17;5.40;;;1.15;;
62582;SDS011;48641;51.676;5.808;2022-07-05T14:53:43;3.80;;;1.30;;
62582;SDS011;48641;51.676;5.808;2022-07-05T14:56:11;4.78;;;1.42;;
62582;SDS011;48641;51.676;5.808;2022-07-05T14:58:37;4.38;;;1.13;;
62582;SDS011;48641;51.676;5.808;2022-07-05T15:01:02;3.22;;;1.10;;
62582;SDS011;48641;51.676;5.808;2022-07-05T15:03:28;2.42;;;1.13;;
62582;SDS011;48641;51.676;5.808;2022-07-05T15:05:54;3.35;;;1.23;;
62582;SDS011;48641;51.676;5.808;2022-07-05T15:08:20;4.25;;;1.20;;
62582;SDS011;48641;51.676;5.808;2022-07-05T15:10:46;4.22;;;1.27;;
62582;SDS011;48641;51.676;5.808;2022-07-05T15:13:12;3.65;;;1.40;;
62582;SDS011;48641;51.676;5.808;2022-07-05T15:15:38;3.03;;;1.20;;
62582;SDS011;48641;51.676;5.808;2022-07-05T15:18:04;3.00;;;1.10;;
62582;SDS011;48641;51.676;5.808;2022-07-05T15:20:30;2.72;;;1.17;;
62582;SDS011;48641;51.676;5.808;2022-07-05T15:22:55;3.30;;;1.10;;
62582;SDS011;48641;51.676;5.808;2022-07-05T15:25:21;2.95;;;1.10;;